Time;durP1;ratioP1;P1;durP2;ratioP2;P2;SDS_P1;SDS_P2;PMS_P1;PMS_P2;Temp;Humidity;BMP_temperature;BMP_pressure;BME280_temperature;BME280_humidity;BME280_pressure;Samples;Min_cycle;Max_cycle;Signal;HPM_P1;HPM_P2
2022/04/03 00:01:35;;;;;;;5.63;3.00;;;;;;;-1.80;71.93;102363.06;4699717;30;20120;-78
2022/04/03 00:04:04;;;;;;;6.45;3.10;;;;;;;-1.83;72.41;102363.88;4699777;30;20038;-79
2022/04/03 00:06:30;;;;;;;5.60;3.10;;;;;;;-1.92;72.81;102361.22;4699445;30;20132;-78
2022/04/03 00:08:56;;;;;;;5.47;2.80;;;;;;;-2.13;73.19;102338.16;4699606;30;20026;-78
2022/04/03 00:11:21;;;;;;;6.03;3.45;;;;;;;-2.25;73.59;102336.31;4699451;30;20061;-81
2022/04/03 00:13:48;;;;;;;5.53;2.90;;;;;;;-2.31;73.93;102341.28;4699380;30;20053;-79
2022/04/03 00:52:35;;;;;;;6.40;4.30;;;;;;;-2.95;78.22;102333.56;4748207;25;20069;-77
2022/04/03 00:55:02;;;;;;;7.50;4.53;;;;;;;-2.67;78.35;102369.41;4664895;30;20038;-81
2022/04/03 00:57:27;;;;;;;9.10;4.70;;;;;;;-2.64;78.45;102366.94;4664676;30;20066;-77
2022/04/03 00:59:54;;;;;;;8.15;4.45;;;;;;;-2.61;78.40;102364.44;4664964;30;20081;-79
2022/04/03 01:02:19;;;;;;;6.38;4.28;;;;;;;-2.59;78.68;102362.78;4664779;30;20034;-78
2022/04/03 01:04:45;;;;;;;7.68;4.90;;;;;;;-2.64;78.38;102365.25;4664973;30;20039;-77
2022/04/03 01:07:10;;;;;;;6.63;4.03;;;;;;;-2.79;79.21;102343.91;4664136;30;20477;-77
2022/04/03 01:09:36;;;;;;;8.30;4.50;;;;;;;-2.77;79.23;102365.00;4665699;30;20046;-77
2022/04/03 01:12:02;;;;;;;7.18;4.63;;;;;;;-2.78;79.83;102366.69;4667900;30;20038;-80
2022/04/03 01:14:38;;;;;;;7.35;4.90;;;;;;;-2.74;80.10;102355.81;4667985;30;20469;-77
2022/04/03 01:17:09;;;;;;;7.82;5.05;;;;;;;-2.81;79.65;102338.00;4666243;30;20060;-77
2022/04/03 01:19:38;;;;;;;7.60;4.63;;;;;;;-2.73;80.17;102360.03;4668061;30;20045;-78
2022/04/03 01:22:04;;;;;;;7.97;5.18;;;;;;;-2.71;80.43;102357.53;4666419;30;20805;-77
2022/04/03 01:24:30;;;;;;;7.93;4.75;;;;;;;-2.78;80.50;102349.00;4667554;30;20030;-77
2022/04/03 01:26:56;;;;;;;9.18;5.43;;;;;;;-2.76;81.00;102357.44;4667541;30;20046;-77
2022/04/03 01:29:23;;;;;;;7.63;5.07;;;;;;;-2.84;80.32;102343.84;4667795;30;20097;-77
2022/04/03 01:31:53;;;;;;;7.47;4.90;;;;;;;-2.85;80.70;102343.81;4667711;30;20034;-78
2022/04/03 01:34:19;;;;;;;10.30;5.45;;;;;;;-2.81;80.74;102346.44;4667562;30;20089;-77
2022/04/03 01:36:46;;;;;;;9.32;5.53;;;;;;;-2.70;80.85;102360.09;4667496;30;20045;-77
2022/04/03 01:39:12;;;;;;;9.85;5.40;;;;;;;-2.84;80.89;102327.84;4652207;30;20464;-77
2022/04/03 01:41:38;;;;;;;10.32;5.95;;;;;;;-2.86;80.61;102337.91;4667287;30;20034;-78
2022/04/03 01:44:05;;;;;;;7.45;5.00;;;;;;;-2.93;80.96;102328.53;4667500;30;20044;-77
2022/04/03 01:46:30;;;;;;;9.70;5.53;;;;;;;-2.83;81.25;102339.66;4667401;30;20082;-76
2022/04/03 01:48:55;;;;;;;8.25;5.22;;;;;;;-3.03;81.25;102314.06;4667188;30;20073;-76
2022/04/03 01:51:21;;;;;;;9.20;6.13;;;;;;;-3.15;81.40;102301.19;4671207;30;20095;-76
2022/04/03 01:53:59;;;;;;;9.52;5.78;;;;;;;-3.41;81.23;102258.66;4684146;30;20483;-77
2022/04/03 01:56:25;;;;;;;11.13;5.97;;;;;;;-3.11;81.41;102313.91;4684052;30;20045;-76
2022/04/03 01:58:51;;;;;;;9.00;5.78;;;;;;;-2.98;81.98;102343.59;4684386;30;20057;-77
2022/04/03 02:01:16;;;;;;;10.57;5.68;;;;;;;-3.02;81.45;102341.88;4684406;30;20496;-77
2022/04/03 02:03:42;;;;;;;9.50;5.90;;;;;;;-3.22;81.81;102311.19;4684304;30;20030;-77
2022/04/03 02:06:08;;;;;;;11.57;6.25;;;;;;;-3.07;81.84;102348.50;4684006;30;20034;-77
2022/04/03 02:08:33;;;;;;;9.10;5.75;;;;;;;-3.17;82.51;102334.84;4684121;30;20045;-77
2022/04/03 02:10:59;;;;;;;7.28;5.55;;;;;;;-3.23;82.70;102337.28;4683644;30;20096;-78
2022/04/03 02:13:25;;;;;;;8.60;5.47;;;;;;;-3.24;82.50;102347.38;4668736;30;20085;-77
2022/04/03 02:15:50;;;;;;;9.20;5.45;;;;;;;-3.28;83.18;102343.91;4668641;30;20046;-76
2022/04/03 02:18:17;;;;;;;7.93;4.80;;;;;;;-3.31;82.70;102343.03;4684192;30;20034;-77
2022/04/03 02:20:42;;;;;;;8.07;5.30;;;;;;;-3.52;83.35;102316.56;4683407;30;20101;-77
2022/04/03 02:23:08;;;;;;;8.25;4.57;;;;;;;-3.50;83.35;102330.06;4683841;30;20034;-77
2022/04/03 02:25:33;;;;;;;9.27;5.10;;;;;;;-3.41;83.84;102336.94;4683870;30;20131;-77
2022/04/03 02:28:01;;;;;;;10.57;4.95;;;;;;;-3.51;83.92;102317.41;4683864;30;20034;-77
2022/04/03 02:30:27;;;;;;;6.20;4.60;;;;;;;-3.51;83.58;102328.34;4683894;30;20117;-77
2022/04/03 02:32:52;;;;;;;8.73;4.18;;;;;;;-3.46;83.99;102341.03;4683912;30;20165;-77
2022/04/03 02:35:18;;;;;;;7.10;4.82;;;;;;;-3.49;84.67;102339.31;4683745;30;20108;-77
2022/04/03 02:37:44;;;;;;;7.45;4.32;;;;;;;-3.54;84.39;102340.03;4683469;30;20554;-80
2022/04/03 02:40:14;;;;;;;8.05;5.25;;;;;;;-3.68;84.39;102323.78;4682961;30;20113;-77
2022/04/03 02:42:40;;;;;;;7.43;4.75;;;;;;;-3.74;84.75;102316.94;4683527;30;20081;-77
2022/04/03 02:45:06;;;;;;;8.70;4.43;;;;;;;-3.73;85.10;102320.34;4683323;30;20180;-82
2022/04/03 02:50:44;;;;;;;7.18;4.72;;;;;;;-4.85;85.02;102138.16;4712858;25;20057;-83
2022/04/03 02:53:47;;;;;;;7.28;4.32;;;;;;;-4.05;85.38;102260.81;4700310;30;20103;-77
2022/04/03 02:56:19;;;;;;;7.13;4.35;;;;;;;-4.04;85.74;102270.09;4699142;30;20037;-78
2022/04/03 02:59:16;;;;;;;9.00;4.88;;;;;;;-3.88;85.51;102293.97;4685086;30;20045;-77
2022/04/03 03:01:50;;;;;;;7.53;4.90;;;;;;;-4.12;86.12;102255.66;4674749;30;20042;-76
2022/04/03 03:04:41;;;;;;;9.23;5.13;;;;;;;-3.54;85.43;102350.16;4700336;30;20484;-77
2022/04/03 03:07:52;;;;;;;7.70;4.50;;;;;;;-3.56;85.77;102356.84;4646936;30;20085;-76
2022/04/03 03:10:31;;;;;;;11.65;4.55;;;;;;;-3.96;86.16;102280.34;4646640;30;20074;-77
2022/04/03 03:13:31;;;;;;;9.90;4.75;;;;;;;-4.75;86.54;102145.94;4646880;30;20054;-77
2022/04/03 03:16:15;;;;;;;7.15;4.65;;;;;;;-3.91;86.26;102283.81;4621389;30;20086;-79
2022/04/03 03:18:55;;;;;;;6.25;4.22;;;;;;;-4.32;85.90;102214.03;4646880;30;20088;-77
2022/04/03 03:21:55;;;;;;;7.90;4.55;;;;;;;-3.86;85.97;102302.41;4646823;30;20030;-78
2022/04/03 03:25:11;;;;;;;6.70;4.38;;;;;;;-3.64;86.27;102355.84;4590801;31;20043;-77
2022/04/03 03:27:55;;;;;;;8.32;5.10;;;;;;;-4.23;86.31;102264.63;4629819;30;20066;-77
2022/04/03 03:30:21;;;;;;;10.25;4.50;;;;;;;-3.86;86.47;102347.00;4629682;31;20053;-79
2022/04/03 03:33:05;;;;;;;6.53;4.65;;;;;;;-4.94;86.18;102169.88;4612795;31;20398;-77
2022/04/03 03:36:00;;;;;;;7.45;4.30;;;;;;;-3.86;86.80;102360.47;4613044;31;20044;-77
2022/04/03 03:38:31;;;;;;;6.72;4.60;;;;;;;-4.80;86.41;102204.63;4612878;31;20107;-78
2022/04/03 03:41:15;;;;;;;9.27;4.30;;;;;;;-3.93;86.92;102361.16;4612753;31;20578;-78
2022/04/03 03:43:50;;;;;;;7.93;4.30;;;;;;;-4.05;87.30;102340.69;4628023;30;20042;-77
2022/04/03 03:46:50;;;;;;;7.80;4.50;;;;;;;-3.98;87.21;102362.72;5017361;25;20155;-78
2022/04/03 03:49:57;;;;;;;7.60;4.38;;;;;;;-3.98;87.40;102362.72;4682443;30;20057;-78
2022/04/03 03:52:42;;;;;;;7.45;4.85;;;;;;;-4.45;87.59;102288.56;4681655;30;20054;-77
2022/04/03 03:55:16;;;;;;;7.15;4.55;;;;;;;-4.89;87.84;102217.84;4682418;30;20076;-77
2022/04/03 03:58:01;;;;;;;8.45;4.85;;;;;;;-5.19;87.01;102172.66;4682468;30;20044;-77
2022/04/03 04:00:27;;;;;;;7.32;4.75;;;;;;;-4.05;87.72;102355.84;4682024;30;20045;-77
2022/04/03 04:02:52;;;;;;;6.20;4.22;;;;;;;-4.09;87.72;102356.59;4682386;30;20038;-78
2022/04/03 04:05:18;;;;;;;6.78;4.28;;;;;;;-4.14;87.57;102361.53;4666701;30;20133;-78
2022/04/03 04:07:45;;;;;;;7.18;4.65;;;;;;;-4.15;87.65;102361.50;4682302;30;20112;-77
2022/04/03 04:10:16;;;;;;;7.32;4.65;;;;;;;-4.22;87.96;102347.06;4682268;30;20034;-77
2022/04/03 04:12:43;;;;;;;7.32;4.65;;;;;;;-4.15;nan;102356.47;4682267;30;20037;-77
2022/04/03 04:15:09;;;;;;;8.50;4.47;;;;;;;-4.37;87.72;102325.72;4682223;30;20490;-77
2022/04/03 04:17:38;;;;;;;7.78;4.28;;;;;;;-4.18;88.48;102362.28;4682480;30;20108;-77
2022/04/03 04:20:09;;;;;;;7.47;4.25;;;;;;;-4.43;88.70;102317.16;4682345;30;20395;-78
2022/04/03 04:22:35;;;;;;;8.63;4.55;;;;;;;-4.21;87.97;102367.28;4682199;30;20065;-79
2022/04/03 04:25:01;;;;;;;7.32;4.70;;;;;;;-4.38;88.69;102346.72;4682069;30;20038;-78
2022/04/03 04:27:26;;;;;;;7.03;4.40;;;;;;;-4.20;87.94;102365.63;4681805;30;20400;-79
2022/04/03 04:29:52;;;;;;;8.10;4.70;;;;;;;-4.18;88.55;102369.00;4682040;30;20495;-79
2022/04/03 04:32:17;;;;;;;11.20;4.82;;;;;;;-4.42;88.82;102319.75;4682311;30;20518;-82
2022/04/03 04:34:42;;;;;;;6.93;4.53;;;;;;;-4.38;88.53;102331.59;4682153;30;20049;-77
2022/04/03 04:37:08;;;;;;;7.10;4.53;;;;;;;-4.14;88.76;102359.00;4682344;30;20045;-78
2022/04/03 04:39:35;;;;;;;8.32;4.63;;;;;;;-4.36;88.60;102329.09;4681065;30;20050;-78
2022/04/03 04:42:00;;;;;;;8.63;4.88;;;;;;;-4.14;89.06;102370.78;4681704;30;20033;-80
2022/04/03 04:44:28;;;;;;;7.68;4.65;;;;;;;-4.13;89.09;102375.00;4683194;30;20548;-78
2022/04/03 04:46:53;;;;;;;8.07;4.45;;;;;;;-4.12;88.87;102376.72;4685725;30;20049;-77
2022/04/03 04:49:19;;;;;;;6.90;4.30;;;;;;;-4.12;88.72;102377.56;4702719;30;20046;-78
2022/04/03 04:51:44;;;;;;;7.65;4.40;;;;;;;-4.23;88.63;102355.44;4702690;30;20089;-78
2022/04/03 04:54:10;;;;;;;7.85;4.63;;;;;;;-4.12;88.81;102382.63;4702393;30;20040;-78
2022/04/03 04:56:36;;;;;;;7.40;4.75;;;;;;;-4.12;89.03;102384.28;4702426;30;20035;-77
2022/04/03 05:05:22;;;;;;;6.97;4.53;;;;;;;-4.13;89.32;102397.69;4668013;30;20471;-78
2022/04/03 05:10:42;;;;;;;6.53;4.28;;;;;;;-4.63;88.86;102327.63;4685103;30;20053;-78
2022/04/03 05:13:28;;;;;;;8.52;4.70;;;;;;;-5.30;88.74;102201.78;4684927;30;20038;-78
2022/04/03 05:15:56;;;;;;;8.60;4.65;;;;;;;-4.09;88.71;102397.81;4684876;30;20041;-77
2022/04/03 05:18:27;;;;;;;7.05;4.45;;;;;;;-4.07;88.89;102398.69;4684834;30;20029;-77
2022/04/03 05:20:52;;;;;;;9.07;4.63;;;;;;;-4.70;88.93;102290.53;4684965;30;20611;-78
2022/04/03 05:23:27;;;;;;;7.85;4.75;;;;;;;-4.51;89.45;102296.00;4817692;25;20086;-78
2022/04/03 05:25:52;;;;;;;8.20;5.10;;;;;;;-3.82;89.03;102396.72;4667566;30;20062;-78
2022/04/03 05:28:18;;;;;;;7.55;4.53;;;;;;;-3.74;89.12;102392.66;4667489;30;20125;-77
2022/04/03 05:30:43;;;;;;;8.20;5.30;;;;;;;-3.88;88.89;102359.56;4667479;30;20396;-77
2022/04/03 05:33:08;;;;;;;8.02;4.85;;;;;;;-3.54;88.64;102401.53;4667645;30;20599;-77
2022/04/03 05:35:34;;;;;;;7.40;4.88;;;;;;;-3.51;88.87;102388.09;4667694;30;20448;-78
2022/04/03 05:37:59;;;;;;;7.78;4.75;;;;;;;-3.54;88.47;102373.75;4667373;30;20164;-77
2022/04/03 05:40:24;;;;;;;8.38;5.07;;;;;;;-3.25;88.17;102407.13;4667451;30;20477;-79
2022/04/03 05:42:51;;;;;;;8.52;5.07;;;;;;;-3.47;88.46;102354.50;4667333;30;20026;-75
2022/04/03 05:45:16;;;;;;;9.23;5.50;;;;;;;-3.03;88.23;102408.41;4667133;30;20461;-76
2022/04/03 05:47:42;;;;;;;8.15;5.22;;;;;;;-3.17;88.07;102360.13;4666199;30;20117;-77
2022/04/03 05:50:07;;;;;;;10.93;6.82;;;;;;;-2.79;87.26;102410.50;4667364;30;20122;-77
2022/04/03 05:52:44;;;;;;;12.68;10.00;;;;;;;-2.68;87.82;102409.00;4667105;30;20061;-79
2022/04/03 05:55:10;;;;;;;10.55;7.95;;;;;;;-2.57;87.33;102411.69;4666499;30;20038;-77
2022/04/03 05:57:36;;;;;;;10.10;7.13;;;;;;;-2.60;87.02;102394.81;4666662;30;20481;-78
2022/04/03 06:00:04;;;;;;;13.75;7.18;;;;;;;-2.39;86.79;102413.69;4666644;30;20085;-78
2022/04/03 06:02:29;;;;;;;10.40;6.80;;;;;;;-2.34;86.59;102401.97;4666786;30;20800;-77
2022/04/03 06:04:54;;;;;;;9.73;6.90;;;;;;;-2.44;86.31;102373.16;4667155;30;20038;-77
2022/04/03 06:07:20;;;;;;;9.57;6.97;;;;;;;-2.09;86.57;102419.22;4667018;30;20077;-77
2022/04/03 06:09:45;;;;;;;9.93;6.32;;;;;;;-2.29;86.06;102367.47;4667085;30;20036;-78
2022/04/03 06:12:10;;;;;;;9.50;6.60;;;;;;;-1.91;86.08;102415.25;4667563;30;20034;-82
2022/04/03 06:14:36;;;;;;;9.10;6.50;;;;;;;-1.81;85.05;102412.00;4666922;30;20122;-83
2022/04/03 06:17:01;;;;;;;11.65;6.30;;;;;;;-1.61;84.90;102420.72;4667090;30;20495;-78
2022/04/03 06:19:26;;;;;;;9.35;6.30;;;;;;;-1.65;84.90;102386.06;4666897;30;20030;-79
2022/04/03 06:21:52;;;;;;;9.60;5.85;;;;;;;-1.28;84.26;102419.41;4651539;30;20428;-78
2022/04/03 06:24:17;;;;;;;8.73;5.78;;;;;;;-1.10;83.14;102408.63;4666807;30;20400;-82
2022/04/03 06:26:42;;;;;;;9.10;5.57;;;;;;;-1.05;82.92;102397.72;4666715;30;20471;-83
2022/04/03 06:29:08;;;;;;;7.95;5.30;;;;;;;-0.92;82.21;102417.28;4666626;30;20066;-83
2022/04/03 06:31:33;;;;;;;9.07;5.50;;;;;;;-0.93;82.25;102409.66;4666471;30;20027;-82
2022/04/03 06:34:02;;;;;;;7.28;5.03;;;;;;;-0.95;81.96;102403.72;4666397;30;20039;-83
2022/04/03 06:36:27;;;;;;;8.10;5.30;;;;;;;-0.97;81.80;102393.56;4666577;30;20548;-81
2022/04/03 06:38:52;;;;;;;9.30;5.55;;;;;;;-0.81;81.17;102422.44;4666388;30;20034;-82
2022/04/03 06:41:18;;;;;;;8.80;5.30;;;;;;;-0.99;81.60;102397.75;4666374;30;20074;-78
2022/04/03 06:43:43;;;;;;;8.30;5.22;;;;;;;-0.99;81.64;102399.44;4636752;30;20041;-82
2022/04/03 06:46:08;;;;;;;9.15;5.82;;;;;;;-0.91;82.09;102418.97;4666227;30;20030;-79
2022/04/03 06:48:34;;;;;;;8.95;5.65;;;;;;;-0.89;82.47;102416.44;4666367;30;20066;-74
2022/04/03 06:51:00;;;;;;;7.93;5.50;;;;;;;-0.51;82.18;102421.88;4666323;30;20106;-84
2022/04/03 06:53:26;;;;;;;7.13;5.03;;;;;;;-0.27;80.89;102420.38;4666377;30;20039;-78
2022/04/03 06:55:51;;;;;;;8.25;5.57;;;;;;;0.50;79.89;102417.44;4666174;30;20049;-83
2022/04/03 06:58:16;;;;;;;9.13;5.43;;;;;;;1.46;77.45;102419.31;4666073;30;20039;-81
2022/04/03 07:00:42;;;;;;;8.75;5.40;;;;;;;2.26;73.12;102415.81;4665880;30;20042;-81
2022/04/03 07:03:07;;;;;;;7.32;5.05;;;;;;;2.42;71.92;102411.53;4666155;30;20073;-81
2022/04/03 07:05:32;;;;;;;9.02;5.20;;;;;;;2.88;71.64;102418.09;4665937;30;20031;-79
2022/04/03 07:07:58;;;;;;;7.65;5.25;;;;;;;3.67;68.22;102334.94;4665703;30;20047;-83
2022/04/03 07:10:24;;;;;;;7.97;5.10;;;;;;;5.32;62.98;102357.47;4666229;30;20030;-82
2022/04/03 07:12:50;;;;;;;6.25;4.65;;;;;;;6.02;60.85;102410.91;4665958;30;20042;-82
2022/04/03 07:15:15;;;;;;;8.20;4.80;;;;;;;4.89;62.22;102369.19;4665695;30;20039;-80
2022/04/03 07:17:42;;;;;;;7.25;5.13;;;;;;;3.92;64.43;102390.88;4650509;30;20042;-80
2022/04/03 07:20:08;;;;;;;7.63;4.90;;;;;;;2.93;67.45;102374.69;4665910;30;20369;-85
2022/04/03 07:22:33;;;;;;;7.85;5.15;;;;;;;2.23;69.99;102349.56;4665544;30;20063;-82
2022/04/03 07:24:59;;;;;;;8.15;5.90;;;;;;;2.03;72.08;102381.91;4665940;30;20042;-81
2022/04/03 07:27:24;;;;;;;8.27;5.30;;;;;;;1.47;73.15;102337.88;4665854;30;20073;-84
2022/04/03 07:29:50;;;;;;;8.18;5.63;;;;;;;1.58;73.91;102393.91;4665529;30;20140;-84
2022/04/03 07:32:15;;;;;;;7.63;5.38;;;;;;;1.62;74.93;102421.03;4665622;30;20583;-81
2022/04/03 07:34:41;;;;;;;8.55;6.05;;;;;;;1.49;75.60;102425.28;4665667;30;20035;-78
2022/04/03 07:37:06;;;;;;;7.80;5.55;;;;;;;1.46;76.31;102435.44;4665923;30;20121;-78
2022/04/03 07:39:31;;;;;;;7.10;5.50;;;;;;;1.44;76.85;102427.81;4665741;30;20113;-83
2022/04/03 07:41:57;;;;;;;9.57;4.78;;;;;;;1.23;77.02;102389.63;4665702;30;20030;-78
2022/04/03 07:44:22;;;;;;;8.38;5.00;;;;;;;0.96;77.02;102346.34;4675359;25;20539;-77
2022/04/03 07:46:51;;;;;;;6.85;4.95;;;;;;;1.16;77.67;102362.47;4682743;30;20536;-78
2022/04/03 07:49:16;;;;;;;7.30;4.90;;;;;;;1.35;77.36;102392.19;4682502;30;20088;-77
2022/04/03 07:51:44;;;;;;;7.57;4.90;;;;;;;1.14;77.27;102331.09;4682010;30;20543;-76
2022/04/03 07:54:09;;;;;;;7.30;4.75;;;;;;;1.79;76.94;102428.66;4665972;30;20158;-81
2022/04/03 07:56:35;;;;;;;6.93;4.57;;;;;;;1.62;76.68;102390.47;4666122;30;20105;-75
2022/04/03 07:59:03;;;;;;;6.43;4.32;;;;;;;1.90;77.06;102421.88;4679859;30;20148;-76
2022/04/03 08:04:06;;;;;;;6.32;4.05;;;;;;;1.87;75.07;102396.38;5052277;25;20062;-75
2022/04/03 08:06:37;;;;;;;5.25;3.63;;;;;;;2.17;74.34;102433.72;4682316;30;20519;-78
2022/04/03 08:09:02;;;;;;;5.45;3.00;;;;;;;2.23;72.73;102437.06;4682405;30;20468;-77
2022/04/03 08:11:27;;;;;;;4.50;2.85;;;;;;;2.35;73.77;102433.63;4682135;30;20022;-78
2022/04/03 08:13:53;;;;;;;4.97;3.20;;;;;;;2.22;72.94;102393.75;4682345;30;20472;-78
2022/04/03 08:16:21;;;;;;;3.80;2.55;;;;;;;2.39;71.20;102402.19;4682089;30;20089;-84
2022/04/03 08:18:46;;;;;;;8.77;2.63;;;;;;;2.60;70.80;102424.19;4682762;30;20522;-77
2022/04/03 08:21:12;;;;;;;4.65;2.10;;;;;;;2.71;69.38;102431.81;4685881;30;20116;-76
2022/04/03 08:23:37;;;;;;;4.53;2.08;;;;;;;2.71;69.24;102416.50;4685899;30;20034;-77
2022/04/03 08:26:03;;;;;;;2.92;1.70;;;;;;;2.76;68.43;102417.34;4684560;30;20486;-78
2022/04/03 08:28:28;;;;;;;4.47;1.90;;;;;;;2.67;67.67;102391.88;4685771;30;20041;-78
2022/04/03 08:30:54;;;;;;;3.53;1.70;;;;;;;2.93;67.23;102422.31;4685517;30;20030;-78
2022/04/03 08:33:19;;;;;;;3.13;1.70;;;;;;;3.05;67.43;102435.88;4685576;30;20034;-77
2022/04/03 08:35:54;;;;;;;3.08;2.13;;;;;;;2.97;68.26;102409.56;4685498;30;20037;-80
2022/04/03 08:38:58;;;;;;;4.50;2.22;;;;;;;2.53;68.65;102331.56;4685735;30;20034;-80
2022/04/03 08:41:35;;;;;;;4.22;2.20;;;;;;;1.99;67.77;102228.22;4632431;31;20047;-80
2022/04/03 08:44:21;;;;;;;4.20;2.08;;;;;;;3.04;68.99;102383.13;4632512;31;20102;-80
2022/04/03 08:50:08;;;;;;;4.45;2.38;;;;;;;3.49;66.74;102413.44;4654737;25;20057;-77
2022/04/03 08:52:36;;;;;;;4.57;2.00;;;;;;;3.88;67.82;102428.41;4685480;30;20480;-75
2022/04/03 08:55:04;;;;;;;4.95;2.70;;;;;;;4.09;66.21;102391.56;4685208;30;20069;-77
2022/04/03 08:57:29;;;;;;;2.78;1.92;;;;;;;4.79;63.52;102431.63;4669769;30;20042;-77
2022/04/03 08:59:55;;;;;;;4.15;2.10;;;;;;;5.02;63.06;102379.28;4684093;30;20429;-79
2022/04/03 09:02:21;;;;;;;3.78;1.92;;;;;;;5.75;61.63;102407.09;4685108;30;20065;-78
2022/04/03 09:04:47;;;;;;;2.97;1.50;;;;;;;6.09;59.51;102405.66;4683799;30;20121;-78
2022/04/03 09:07:23;;;;;;;3.72;2.42;;;;;;;6.19;58.50;102414.88;4685286;30;20034;-77
2022/04/03 09:10:17;;;;;;;3.60;1.55;;;;;;;6.35;60.48;102430.81;4684415;30;20411;-78
2022/04/03 09:12:50;;;;;;;4.07;1.50;;;;;;;6.33;57.57;102428.28;4631970;31;20103;-78
2022/04/03 09:15:17;;;;;;;3.75;1.80;;;;;;;6.25;57.70;102431.00;4631937;31;20610;-78
2022/04/03 09:17:54;;;;;;;3.13;1.60;;;;;;;5.76;56.93;102403.66;4632019;31;20520;-81
2022/04/03 09:20:25;;;;;;;2.85;1.90;;;;;;;5.54;58.32;102424.56;4632021;31;20134;-82
2022/04/03 09:22:53;;;;;;;2.80;1.60;;;;;;;5.14;58.76;102400.41;4631873;31;20138;-81
2022/04/03 09:25:30;;;;;;;2.90;1.77;;;;;;;5.13;60.09;102419.22;4631921;31;20042;-81
2022/04/03 09:27:58;;;;;;;3.67;1.70;;;;;;;4.94;60.31;102402.44;4631705;31;20035;-82
2022/04/03 09:30:32;;;;;;;2.65;1.45;;;;;;;5.11;61.13;102428.66;4631556;31;20054;-81
2022/04/03 09:32:59;;;;;;;4.28;1.50;;;;;;;5.07;59.81;102426.97;4631381;31;20074;-84
2022/04/03 09:35:27;;;;;;;2.88;1.42;;;;;;;4.98;58.83;102421.13;4631465;31;20489;-83
2022/04/03 09:38:12;;;;;;;2.53;1.63;;;;;;;4.96;60.27;102418.59;4631786;31;20266;-83
2022/04/03 09:40:43;;;;;;;3.55;2.15;;;;;;;4.88;60.59;102405.91;4631466;31;20179;-82
2022/04/03 09:43:13;;;;;;;2.58;1.58;;;;;;;5.05;60.23;102420.19;4631911;31;20054;-82
2022/04/03 09:45:51;;;;;;;2.10;1.40;;;;;;;5.11;60.12;102418.41;4631664;31;20126;-80
2022/04/03 09:48:29;;;;;;;2.53;1.55;;;;;;;5.22;56.42;102412.28;4639822;30;20084;-82
2022/04/03 09:51:19;;;;;;;3.65;1.10;;;;;;;5.23;57.39;102407.13;4683947;30;20061;-82
2022/04/03 09:53:47;;;;;;;2.58;1.20;;;;;;;5.22;56.27;102407.16;4684603;30;20038;-81
2022/04/03 09:56:22;;;;;;;2.65;1.20;;;;;;;5.40;57.89;102404.28;4684352;30;20559;-82
2022/04/03 10:03:10;;;;;;;1.98;1.10;;;;;;;5.84;55.46;102370.19;5341222;25;20061;-78
2022/04/03 10:05:48;;;;;;;1.80;1.10;;;;;;;5.31;54.89;102220.88;4666901;30;20038;-83
2022/04/03 10:12:29;;;;;;;1.45;0.95;;;;;;;6.53;53.80;102392.78;4667199;30;20052;-84
2022/04/03 10:15:04;;;;;;;2.10;1.10;;;;;;;6.47;51.53;102380.09;4667332;30;20030;-84
2022/04/03 10:17:29;;;;;;;4.45;1.10;;;;;;;6.52;52.70;102387.69;4651483;30;20515;-79
2022/04/03 10:19:58;;;;;;;2.20;0.90;;;;;;;5.99;51.39;102271.66;4666924;30;20034;-82
2022/04/03 10:22:39;;;;;;;2.78;1.10;;;;;;;5.83;52.52;102209.56;4637417;30;20154;-81
2022/04/03 10:25:30;;;;;;;2.35;0.98;;;;;;;5.99;51.79;102218.63;4666798;30;20042;-83
2022/04/03 10:27:58;;;;;;;2.77;1.10;;;;;;;6.96;50.34;102378.16;4651208;30;20401;-81
2022/04/03 10:30:44;;;;;;;2.25;1.15;;;;;;;7.01;50.56;102378.91;4666645;30;20042;-82
2022/04/03 10:33:20;;;;;;;1.83;1.10;;;;;;;6.97;50.30;102339.59;4666225;30;20034;-81
2022/04/03 10:35:50;;;;;;;2.08;1.30;;;;;;;7.29;49.54;102355.97;4666803;30;20040;-83
2022/04/03 10:38:33;;;;;;;1.80;1.33;;;;;;;7.24;48.94;102357.81;4666586;30;20121;-80
2022/04/03 10:40:59;;;;;;;3.25;1.30;;;;;;;7.16;49.46;102363.13;4666304;30;20034;-82
2022/04/03 10:43:29;;;;;;;2.13;1.50;;;;;;;6.98;50.55;102358.41;4666033;30;20105;-83
2022/04/03 10:45:55;;;;;;;3.20;1.42;;;;;;;6.99;50.82;102363.53;4666401;30;20043;-83
2022/04/03 10:48:20;;;;;;;1.52;1.10;;;;;;;6.92;50.15;102362.00;4666558;30;20563;-84
2022/04/03 10:51:10;;;;;;;3.13;1.33;;;;;;;7.07;52.09;102368.47;4666278;30;20049;-84
2022/04/03 10:53:42;;;;;;;2.40;1.25;;;;;;;7.24;49.82;102362.94;4666333;30;20030;-83
2022/04/03 10:56:48;;;;;;;2.95;1.20;;;;;;;7.60;50.51;102356.88;4721180;25;20057;-84
2022/04/03 10:59:13;;;;;;;2.20;1.20;;;;;;;7.11;49.09;102226.25;4700866;30;20172;-81
2022/04/03 11:01:52;;;;;;;1.55;1.13;;;;;;;7.13;47.59;102211.63;4700656;30;20112;-82
2022/04/03 11:04:23;;;;;;;2.75;1.10;;;;;;;6.95;47.28;102184.72;4700449;30;20500;-81
2022/04/03 11:07:13;;;;;;;3.05;0.90;;;;;;;7.90;48.40;102344.94;4700406;30;20045;-83
2022/04/03 11:09:48;;;;;;;4.00;1.13;;;;;;;7.03;47.86;102233.31;4700406;30;20030;-83
2022/04/03 11:12:13;;;;;;;2.00;1.10;;;;;;;7.27;48.77;102284.03;4700466;30;20038;-80
2022/04/03 11:15:26;;;;;;;2.45;1.52;;;;;;;6.74;48.25;102178.41;4700137;30;20021;-84
2022/04/03 11:18:54;;;;;;;2.08;1.00;;;;;;;6.87;48.93;102190.03;4659634;30;20104;-85
2022/04/03 11:21:38;;;;;;;3.15;0.95;;;;;;;7.15;47.56;102169.59;4698834;30;20385;-80
2022/04/03 11:24:17;;;;;;;2.60;1.00;;;;;;;7.69;47.24;102242.66;4700259;30;20029;-85
2022/04/03 11:27:12;;;;;;;1.85;1.23;;;;;;;8.27;48.23;102336.19;4700060;30;20517;-83
2022/04/03 11:30:00;;;;;;;2.22;1.15;;;;;;;7.87;47.09;102267.03;4699839;30;20033;-85
2022/04/03 11:32:29;;;;;;;2.13;1.20;;;;;;;7.36;47.93;102201.56;4699998;30;20559;-83
2022/04/03 11:35:47;;;;;;;3.22;1.30;;;;;;;8.40;48.35;102331.53;4699674;30;20030;-82
2022/04/03 11:38:23;;;;;;;;;;;;;;;;;;;;;
2022/04/03 11:41:20;;;;;;;2.72;0.98;;;;;;;8.08;46.42;102211.53;4699738;30;20034;-83
2022/04/03 11:44:07;;;;;;;4.38;1.17;;;;;;;8.53;47.09;102260.75;4699859;30;20124;-83
2022/04/03 11:58:40;;;;;;;2.40;1.20;;;;;;;7.09;49.97;102176.66;3093873;28;20156;-79
2022/04/03 12:04:37;;;;;;;4.07;1.10;;;;;;;7.66;52.23;102261.56;4699325;30;20099;-79
2022/04/03 12:07:03;;;;;;;3.55;1.30;;;;;;;7.44;54.25;102250.19;4699481;30;20073;-78
2022/04/03 12:09:28;;;;;;;2.97;1.20;;;;;;;7.16;54.73;102229.53;4699578;30;20068;-78
2022/04/03 12:12:04;;;;;;;1.90;1.35;;;;;;;7.16;55.77;102256.06;4699537;30;20041;-82
2022/04/03 12:14:31;;;;;;;4.65;1.45;;;;;;;7.44;56.28;102320.44;4699659;30;20101;-78
2022/04/03 12:17:06;;;;;;;3.40;1.65;;;;;;;7.05;54.79;102275.22;4699612;30;20029;-87
2022/04/03 12:19:44;;;;;;;2.50;1.40;;;;;;;6.96;57.01;102263.44;4699117;30;20044;-82
2022/04/03 12:22:12;;;;;;;3.95;1.63;;;;;;;7.42;55.47;102309.34;4699308;30;20139;-77
2022/04/03 12:24:39;;;;;;;4.65;1.58;;;;;;;7.40;55.38;102243.47;4699349;30;20041;-76
2022/04/03 12:27:32;;;;;;;3.88;1.33;;;;;;;8.05;54.56;102294.75;4698115;30;20499;-77
2022/04/03 12:29:57;;;;;;;1.75;1.10;;;;;;;8.48;50.93;102288.38;4663049;30;20070;-84
2022/04/03 12:32:22;;;;;;;2.70;1.13;;;;;;;8.77;50.46;102279.75;4663063;30;20551;-79
2022/04/03 12:34:51;;;;;;;3.83;1.30;;;;;;;8.97;50.79;102279.94;4662664;30;20405;-78
2022/04/03 12:37:23;;;;;;;2.25;1.10;;;;;;;8.98;48.89;102284.19;4662848;30;20046;-78
2022/04/03 12:39:51;;;;;;;2.45;0.90;;;;;;;8.61;47.53;102287.94;4663003;30;20122;-84
2022/04/03 12:42:35;;;;;;;2.08;1.00;;;;;;;8.53;50.80;102283.91;4648774;30;20062;-79
2022/04/03 12:45:15;;;;;;;2.45;0.90;;;;;;;8.70;51.77;102278.25;4663029;30;20121;-77
2022/04/03 12:47:47;;;;;;;1.65;0.95;;;;;;;8.99;50.65;102259.28;4663096;30;20049;-82
2022/04/03 12:50:18;;;;;;;1.65;0.90;;;;;;;9.24;45.98;102260.09;4663053;30;20105;-83
2022/04/03 12:52:50;;;;;;;2.13;0.98;;;;;;;9.32;47.38;102265.84;4662704;30;20035;-86
2022/04/03 12:55:25;;;;;;;1.17;0.90;;;;;;;9.35;46.92;102265.75;4663360;30;20042;-79
2022/04/03 13:00:46;;;;;;;2.28;0.93;;;;;;;9.10;46.18;102263.16;4646158;30;20054;-83
2022/04/03 13:03:32;;;;;;;1.38;0.85;;;;;;;8.92;47.79;102240.59;4632254;30;20480;-84
2022/04/03 13:06:08;;;;;;;2.50;1.30;;;;;;;9.09;46.81;102260.66;4650658;30;20050;-84
2022/04/03 13:08:54;;;;;;;2.08;1.10;;;;;;;9.04;48.13;102210.97;4683802;30;20404;-83
2022/04/03 13:11:45;;;;;;;2.38;1.23;;;;;;;9.24;47.44;102249.78;4685522;30;20109;-79